Flight Track Log - Related Links

Times and Time Zones

All times are in EDT time to prevent confusion due to time zone crossing. See the EJA829P flight status page for this flight to view local times or setup timezone preferences in your user account.

Time Position Orientation Groundspeed Altitude Reporting Facility
EDT Latitude Longitude Course Direction KTS MPH feet Rate Location/Type
Sat 10:28:16 AM 32.7381 -117.2139 287° West 198 228 1,400  Level Los Angeles Center
Sat 10:29:18 AM 32.7556 -117.2831 287° West 215 247 4,800 3,726 Climbing Los Angeles Center
Sat 10:30:20 AM 32.7086 -117.3150 210° Southwest 224 258 9,100 3,854 Climbing Los Angeles Center
Sat 10:31:21 AM 32.6603 -117.2725 143° Southeast 214 246 12,700 2,537 Climbing Los Angeles Center
Sat 10:32:23 AM 32.6431 -117.1900 104° East 251 289 14,300 1,694 Climbing Los Angeles Center
Sat 10:33:25 AM 32.6261 -117.0853 101° East 314 361 16,200 1,902 Climbing Los Angeles Center
Sat 10:34:26 AM 32.6106 -116.9739 99° East 338 389 18,200 1,951 Climbing Los Angeles Center
Sat 10:35:28 AM 32.6219 -116.8614 83° East 346 398 20,200 1,935 Climbing Los Angeles Center
Sat 10:36:30 AM 32.6622 -116.7614 64° Northeast 348 400 22,200 1,366 Climbing Los Angeles Center
Sat 10:37:31 AM 32.7497 -116.6669 42° Northeast 353 406 23,000 390 Climbing Los Angeles Center
Sat 10:38:33 AM 32.8019 -116.5542 61° Northeast 380 437 23,000  Level Los Angeles Center
Sat 10:39:34 AM 32.8544 -116.4367 62° Northeast 388 447 23,000  Level Los Angeles Center
Sat 10:40:36 AM 32.9092 -116.3183 61° Northeast 405 466 23,000  Level Los Angeles Center
Sat 10:41:38 AM 32.9656 -116.1925 62° Northeast 398 458 23,000  Level Los Angeles Center
Sat 10:42:40 AM 33.0181 -116.0750 62° Northeast 401 461 23,000  Level Los Angeles Center
Sat 10:43:41 AM 33.0706 -115.9575 62° Northeast 403 464 23,000  Level Los Angeles Center
Sat 10:44:43 AM 33.1228 -115.8394 62° Northeast 403 464 23,000  Level Los Angeles Center
Sat 10:45:45 AM 33.1756 -115.7203 62° Northeast 405 466 23,000  Level Los Angeles Center
Sat 10:46:47 AM 33.2283 -115.6019 62° Northeast 404 465 23,000  Level Los Angeles Center
Sat 10:47:48 AM 33.2794 -115.4861 62° Northeast 397 457 23,000  Level Los Angeles Center
Sat 10:48:50 AM 33.3381 -115.3522 62° Northeast 380 437 23,000  Level Los Angeles Center
Sat 10:49:52 AM 33.3847 -115.2467 62° Northeast 363 418 23,000  Level Los Angeles Center
Sat 10:50:54 AM 33.4300 -115.1411 63° Northeast 358 412 23,000  Level Los Angeles Center
Sat 10:51:55 AM 33.4781 -115.0331 62° Northeast 366 421 23,000  Level Los Angeles Center
Sat 10:52:57 AM 33.5250 -114.9239 63° Northeast 369 425 23,000  Level Los Angeles Center
Sat 10:53:58 AM 33.5733 -114.8153 62° Northeast 369 425 23,000  Level Los Angeles Center
Sat 10:55:00 AM 33.5906 -114.7011 80° East 356 410 23,000  Level Los Angeles Center
Sat 10:56:02 AM 33.5781 -114.5564 96° East 361 415 23,000  Level Los Angeles Center
Sat 10:57:04 AM 33.5664 -114.4347 97° East 366 421 23,000  Level Los Angeles Center
Sat 10:58:05 AM 33.5550 -114.3108 96° East 373 429 23,000  Level Los Angeles Center
Sat 10:59:07 AM 33.5439 -114.1872 96° East 392 451 23,000  Level Los Angeles Center
Sat 11:00:09 AM 33.5317 -114.0556 96° East 396 456 23,000  Level Los Angeles Center
Sat 11:01:11 AM 33.5189 -113.9244 97° East 397 457 23,000 -823 Level Los Angeles Center
Sat 11:02:13 AM 33.4681 -113.7825 113° Southeast 390 449 21,300 -1,561 Descending Los Angeles Center
Sat 11:03:14 AM 33.4311 -113.6633 110° East 384 442 19,800 -1,171 Descending Los Angeles Center
Sat 11:04:16 AM 33.4108 -113.5442 101° East 369 425 18,900 -871 Descending Los Angeles Center
Sat 11:05:18 AM 33.3906 -113.4361 103° East 336 387 18,000 -1,594 Descending Los Angeles Center
Sat 11:06:39 AM 33.3711 -113.2731 98° East 349 402 15,100 -2,056 Descending Albuquerque Center
Sat 11:07:41 AM 33.4306 -113.1861 51° Northeast 338 389 13,100 -1,887 Descending Albuquerque Center
Sat 11:08:43 AM 33.4933 -113.1028 48° Northeast 336 387 11,200 -1,500 Descending Albuquerque Center
Sat 11:09:45 AM 33.5400 -113.0114 58° Northeast 322 371 10,000 -1,355 Descending Albuquerque Center
Sat 11:10:47 AM 33.5781 -112.9294 61° Northeast 288 331 8,400 -1,548 Descending Albuquerque Center
Sat 11:11:49 AM 33.6178 -112.8431 61° Northeast 291 335 6,800 -1,161 Descending Albuquerque Center
Sat 11:12:51 AM 33.6600 -112.7428 63° Northeast 281 323 6,000 -387 Descending Albuquerque Center
Sat 11:13:53 AM 33.6889 -112.6744 63° Northeast 274 315 6,000  Level Albuquerque Center
Sat 11:14:55 AM 33.7306 -112.5756 63° Northeast 275 316 6,000  Level Albuquerque Center
Sat 11:15:56 AM 33.7650 -112.4975 62° Northeast 268 308 6,000  Level Albuquerque Center
Sat 11:16:58 AM 33.7897 -112.4144 70° East 265 305 6,000  Level Albuquerque Center
Sat 11:18:00 AM 33.7794 -112.3394 99° East 230 265 6,000  Level Albuquerque Center
Sat 11:19:02 AM 33.7658 -112.2667 103° East 226 260 6,000  Level Albuquerque Center
Sat 11:20:04 AM 33.7533 -112.1961 102° East 217 250 6,000  Level Albuquerque Center
Sat 11:21:06 AM 33.7372 -112.1083 102° East 225 259 6,000 -339 Level Albuquerque Center
Sat 11:22:08 AM 33.7222 -112.0383 104° East 221 254 5,300 -484 Descending Albuquerque Center
Sat 11:23:10 AM 33.6997 -111.9711 112° Southeast 219 252 5,000 -677 Descending Albuquerque Center
Sat 11:24:12 AM 33.6806 -111.9144 112° Southeast 186 214 3,900 -1,210 Descending Albuquerque Center
Sat 11:25:14 AM 33.6567 -111.8775 128° Southeast 162 186 2,500 -1,161 Descending Albuquerque Center
Sat 11:26:16 AM 33.6311 -111.9011 218° Southwest 132 152 1,500 -968 Descending Albuquerque Center

Login

Don't have an account? Register now (free) for customized features, flight alerts, and more!